Thursday, October 23, 2014
03:10 UTC
  |  Log In   |  Register Free
Airport Search:

Okmulgee Regional Airport
(KOKM)

Okmulgee Regional Airport Diagram
No Airport Diagram Available

FAA data valid effective September 18, 2014 - November 13, 2014 (unless otherwise noted).

 
 
 
 
 
 
 
 
 
 
 
 
 
 

Current Aviation Weather for Okmulgee Regional Airport (KOKM)

The most recent METAR observation for KOKM was updated at: 0213
METAR Summary (Translated METAR)
KOKM
230155Z AUTO 17008KT 10SM CLR 19/15 A3012 RMK AO2 T01850145
KRVS
230153Z 16006KT 10SM CLR 21/14 A3011 RMK AO2 SLP202 T02060144
(22.4 nm NW from KOKM)
KMKO
230153Z AUTO 14005KT 10SM CLR 17/13 A3014 RMK AO2 SLP202 T01670128
(28.6 nm SE from KOKM)
TAF Summary (Translated TAF)
KRVS
(22.4 nm NW from KOKM)
221720Z 2218/2318 17009KT P6SM SCT040 FM230000 14004KT P6SM BKN250 FM230800 15003KT P6SM SCT050 OVC100 PROB30 2308/2312 5SM -SHRA BR BKN050 FM231200 15003KT P6SM VCSH OVC040
  Airport Weather Conditions for KOKM

 Current Weather at OKM
65° F
Fair
South winds at 9.2 mph
OKM NOAA Radar

Pressure: 30.12 in
Humidity: 78%
Wind: South at 9.2 MPH (8 KT)
Dew Point: 58.1°F
Visibility: 10.00 mi


Airport Weather Forecast for KOKM

Translated METAR and TAF for KOKM
Translated METAR for KOKM (0305 UTC 23 October 2014)
found at http://aviationweather.gov/adds/metars/
 
METAR text: KOKM 230255Z AUTO 16009KT 10SM CLR 19/14 A3012 RMK AO2 T01860140
Conditions at: KOKM (OKMULGEE , OK, US) observed 0255 UTC 23 October 2014
Temperature: 18.6°C (65°F)
Dewpoint: 14.0°C (57°F) [RH = 75%]
Pressure (altimeter): 30.12 inches Hg (1020.1 mb)
Winds: from the SSE (160 degrees) at 10 MPH (9 knots; 4.7 m/s)
Visibility: 10 or more miles (16+ km)
Ceiling: at least 12,000 feet AGL
Clouds: sky clear below 12,000 feet AGL
Weather: automated observation with no human augmentation;
there may or may not be significant weather present at this time
Translated TAF for KOKM

There is no translated TAF available for this airport

Find All Airport Services Find A Hotel Find A Rental Car Find A Golf Course Find A Restaurant $100 Hamburger



FBO's on the Field
FBO Company Facility Photos Services Transportation Aviation Fuel Prices: Prices include tax
Catering Weather Repair Courtesy Rental Type 100LL JetA JetA+ MOGAS 8087
 
Okmulgee Regional Airport

This FBO has not yet been rated
FS: Phillips 66
Last Updated: Oct-20
Login to update fuel prices
SS:
Contact Okmulgee Regional AirportMore FBO Information
 
Add another FBO Facility Photos Catering Weather Repair Courtesy Rental Type 100LL JetA JetA+ MOGAS 8087
Services Transportation Aviation Fuel Prices: Prices include tax


model-print
model-print
model-print
model-print